Time;durP1;ratioP1;P1;durP2;ratioP2;P2;SDS_P1;SDS_P2;PMS_P1;PMS_P2;Temp;Humidity;BMP_temperature;BMP_pressure;BME280_temperature;BME280_humidity;BME280_pressure;Samples;Min_cycle;Max_cycle;Signal;HPM_P1;HPM_P2
2022/08/03 00:01:57;;;;;;;6.57;2.38;;;;;;;24.27;60.61;99713.75;10494770;28;20123;-71
2022/08/03 00:06:58;;;;;;;6.38;2.30;;;;;;;24.43;60.70;99734.38;10494487;28;20044;-71
2022/08/03 00:11:59;;;;;;;5.32;2.45;;;;;;;24.21;61.22;99687.72;10494378;28;20037;-71
2022/08/03 00:17:00;;;;;;;7.05;2.25;;;;;;;24.49;61.38;99727.03;10502634;28;20060;-71
2022/08/03 00:22:01;;;;;;;10.13;3.30;;;;;;;24.08;61.41;99676.34;10501034;28;20075;-71
2022/08/03 00:27:02;;;;;;;7.07;2.85;;;;;;;24.07;61.60;99739.81;10500889;28;20091;-71
2022/08/03 00:32:03;;;;;;;8.77;3.08;;;;;;;23.51;62.22;99719.94;10500780;28;20036;-71
2022/08/03 00:37:04;;;;;;;10.93;3.53;;;;;;;23.15;62.72;99738.81;10500823;28;20134;-71
2022/08/03 00:42:05;;;;;;;6.45;3.65;;;;;;;21.98;63.59;99593.66;10500570;28;20119;-71
2022/08/03 00:47:06;;;;;;;5.30;2.67;;;;;;;22.04;64.63;99635.09;10500360;28;20076;-71
2022/08/03 00:52:08;;;;;;;6.15;3.03;;;;;;;22.49;65.70;99750.13;10499431;28;20040;-71
2022/08/03 00:57:09;;;;;;;6.03;2.72;;;;;;;22.58;65.67;99748.53;10500253;28;20492;-71
2022/08/03 01:02:10;;;;;;;21.23;4.03;;;;;;;22.47;66.12;99733.34;10500515;28;20050;-71
2022/08/03 01:07:23;;;;;;;48.63;5.65;;;;;;;22.17;66.11;99674.44;10499401;28;20475;-71
2022/08/03 01:12:33;;;;;;;43.07;7.57;;;;;;;22.66;68.16;99753.47;10499011;28;20046;-71
2022/08/03 01:17:56;;;;;;;15.65;3.70;;;;;;;21.91;67.21;99670.69;10500057;28;20447;-71
2022/08/03 01:23:16;;;;;;;11.80;4.10;;;;;;;22.06;68.98;99757.34;10498512;28;20059;-71
2022/08/03 01:28:25;;;;;;;16.20;3.97;;;;;;;21.85;70.19;99759.06;10498661;28;20079;-71
2022/08/03 01:33:39;;;;;;;7.93;3.42;;;;;;;21.87;70.91;99762.34;10498347;28;20076;-71
2022/08/03 01:38:54;;;;;;;14.95;3.97;;;;;;;21.22;69.78;99668.72;10499286;28;20127;-71
2022/08/03 01:43:58;;;;;;;20.00;3.88;;;;;;;21.76;69.59;99766.00;10498537;28;20044;-71
2022/08/03 01:49:00;;;;;;;90.32;9.25;;;;;;;21.69;69.25;99765.38;10498815;28;20055;-71
2022/08/03 01:54:03;;;;;;;53.28;6.75;;;;;;;21.55;68.94;99755.00;10498703;28;20044;-71
2022/08/03 01:59:07;;;;;;;49.58;6.72;;;;;;;21.48;70.17;99758.97;10498865;28;20079;-71
2022/08/03 02:04:09;;;;;;;21.35;4.57;;;;;;;21.39;68.49;99735.13;10496948;28;20458;-71
2022/08/03 02:09:12;;;;;;;21.20;4.45;;;;;;;21.53;69.01;99753.63;10497315;28;20032;-71
2022/08/03 02:14:14;;;;;;;15.13;3.65;;;;;;;21.53;68.41;99756.31;10496318;28;20083;-71
2022/08/03 02:19:17;;;;;;;23.13;4.13;;;;;;;21.08;68.42;99695.28;10496638;28;20110;-71
2022/08/03 02:24:18;;;;;;;12.07;3.50;;;;;;;21.43;67.99;99743.53;10497848;28;20040;-71
2022/08/03 02:29:23;;;;;;;19.48;3.65;;;;;;;21.50;68.69;99771.16;10496176;28;20037;-71
2022/08/03 02:34:28;;;;;;;17.20;4.00;;;;;;;21.60;68.80;99783.97;10497099;28;20507;-71
2022/08/03 02:39:32;;;;;;;20.20;4.00;;;;;;;21.44;69.54;99766.75;10495902;28;20051;-71
2022/08/03 02:44:34;;;;;;;23.55;4.10;;;;;;;21.52;69.78;99793.34;10496353;28;20527;-71
2022/08/03 02:49:37;;;;;;;13.75;3.80;;;;;;;21.54;70.45;99785.81;10496533;28;20048;-71
2022/08/03 02:54:39;;;;;;;8.35;3.78;;;;;;;21.17;70.91;99701.88;10496061;28;20044;-72
2022/08/03 02:59:42;;;;;;;9.15;3.13;;;;;;;21.54;70.58;99726.34;10496115;28;20583;-71
2022/08/03 03:04:45;;;;;;;9.10;4.00;;;;;;;22.41;69.37;99797.44;10495827;28;20037;-71
2022/08/03 03:09:46;;;;;;;12.35;3.30;;;;;;;23.38;67.09;99803.41;10496326;28;20536;-72
2022/08/03 03:14:47;;;;;;;10.10;3.17;;;;;;;24.19;63.26;99742.25;10496245;28;20434;-72
2022/08/03 03:19:50;;;;;;;9.98;3.40;;;;;;;25.86;59.75;99784.66;10495572;28;20488;-72
2022/08/03 03:24:53;;;;;;;13.80;3.03;;;;;;;27.33;56.63;99800.69;10495602;28;20040;-72
2022/08/03 03:29:54;;;;;;;8.00;3.33;;;;;;;28.33;53.78;99774.09;10495386;28;20036;-72
2022/08/03 03:34:58;;;;;;;20.30;4.53;;;;;;;29.53;50.92;99783.25;10495015;28;20090;-72
2022/08/03 03:39:58;;;;;;;24.50;3.17;;;;;;;30.30;49.06;99787.75;10494761;28;20036;-72
2022/08/03 03:45:04;;;;;;;11.10;2.85;;;;;;;31.10;46.11;99793.31;10494381;28;20040;-72
2022/08/03 03:50:05;;;;;;;9.65;2.90;;;;;;;31.52;46.42;99791.78;10500034;28;20046;-72
2022/08/03 03:55:07;;;;;;;7.88;2.80;;;;;;;32.22;44.86;99787.13;10502856;28;20051;-72
2022/08/03 04:00:08;;;;;;;10.68;2.75;;;;;;;32.53;43.64;99761.34;10507950;28;20407;-72
2022/08/03 04:15:53;;;;;;;7.63;2.92;;;;;;;33.30;42.53;99797.09;10533651;28;20148;-73
2022/08/03 04:20:58;;;;;;;4.78;2.60;;;;;;;32.95;42.48;99736.72;10537514;28;20043;-73
2022/08/03 04:26:02;;;;;;;7.63;3.28;;;;;;;33.23;41.80;99778.34;10533745;28;20130;-72
2022/08/03 04:31:04;;;;;;;5.68;2.50;;;;;;;33.59;42.44;99797.06;10541020;28;20105;-72
2022/08/03 04:36:07;;;;;;;7.43;2.60;;;;;;;33.62;41.70;99770.78;10540958;28;20514;-73
2022/08/03 04:41:09;;;;;;;9.45;2.60;;;;;;;32.20;43.63;99789.38;10541011;28;20071;-73
2022/08/03 04:46:11;;;;;;;16.70;3.70;;;;;;;32.76;42.99;99792.16;10529256;28;20135;-72
2022/08/03 04:51:12;;;;;;;16.48;5.05;;;;;;;32.99;42.82;99791.91;10509053;28;20049;-72
2022/08/03 04:56:13;;;;;;;15.45;4.10;;;;;;;32.95;42.12;99733.97;10501069;28;20037;-72
2022/08/03 05:01:15;;;;;;;8.25;2.67;;;;;;;32.50;42.33;99797.75;10499962;28;20086;-72
2022/08/03 05:06:16;;;;;;;14.77;3.60;;;;;;;31.84;43.77;99785.03;10498943;28;20053;-72
2022/08/03 05:11:17;;;;;;;22.33;4.32;;;;;;;30.81;45.17;99770.00;10500207;28;20432;-71
2022/08/03 05:16:18;;;;;;;10.40;2.70;;;;;;;30.51;44.84;99788.03;10500198;28;20313;-72
2022/08/03 05:21:18;;;;;;;11.13;3.10;;;;;;;29.70;46.27;99749.75;10500096;28;20098;-72
2022/08/03 05:26:20;;;;;;;11.40;2.70;;;;;;;29.97;46.42;99787.16;10498727;28;20101;-72
2022/08/03 05:31:21;;;;;;;14.18;3.00;;;;;;;29.92;46.26;99749.78;10499128;28;20045;-72
2022/08/03 05:36:22;;;;;;;7.70;2.80;;;;;;;30.66;45.36;99779.41;10498715;28;20039;-71
2022/08/03 05:41:23;;;;;;;17.27;2.67;;;;;;;30.41;46.04;99700.63;10497288;28;20038;-72
2022/08/03 05:46:23;;;;;;;8.13;2.50;;;;;;;31.05;45.10;99782.47;10498126;28;20416;-71
2022/08/03 05:51:24;;;;;;;10.95;2.20;;;;;;;31.48;44.75;99773.56;10498194;28;20488;-72
2022/08/03 05:56:25;;;;;;;14.50;2.60;;;;;;;31.94;42.95;99786.66;10497480;28;20047;-72
2022/08/03 06:01:26;;;;;;;23.33;3.60;;;;;;;32.27;41.86;99764.94;10497146;28;20040;-72
2022/08/03 06:06:27;;;;;;;39.13;3.80;;;;;;;32.53;40.33;99771.53;10498338;28;20040;-72
2022/08/03 06:11:28;;;;;;;15.15;3.40;;;;;;;32.29;40.90;99776.44;10496206;28;20483;-73
2022/08/03 06:16:28;;;;;;;9.77;3.47;;;;;;;31.55;42.01;99670.34;10497612;28;20468;-72
2022/08/03 06:21:29;;;;;;;13.90;3.03;;;;;;;32.31;39.45;99765.13;10497137;28;20044;-73
2022/08/03 06:26:31;;;;;;;8.82;2.50;;;;;;;32.56;39.29;99765.38;10496223;28;20047;-73
2022/08/03 06:31:32;;;;;;;13.15;2.65;;;;;;;33.27;36.80;99764.72;10497771;28;20048;-72
2022/08/03 06:36:33;;;;;;;9.20;2.47;;;;;;;33.69;34.86;99767.53;10496555;28;20496;-74
2022/08/03 06:41:34;;;;;;;9.32;2.25;;;;;;;33.95;34.05;99767.28;10496479;28;20518;-73
2022/08/03 06:46:35;;;;;;;10.00;2.17;;;;;;;34.00;33.92;99762.34;10496972;28;20040;-71
2022/08/03 06:51:36;;;;;;;6.82;2.10;;;;;;;34.17;33.92;99749.59;10479348;28;20049;-72
2022/08/03 06:56:37;;;;;;;10.60;2.47;;;;;;;34.22;32.98;99774.16;10495993;28;20047;-72
2022/08/03 07:01:37;;;;;;;13.48;2.63;;;;;;;33.98;33.97;99781.16;10495479;28;20125;-73
2022/08/03 07:06:38;;;;;;;12.02;2.42;;;;;;;34.23;33.53;99775.78;10495122;28;20556;-72
2022/08/03 07:11:39;;;;;;;12.32;2.45;;;;;;;34.14;32.13;99726.25;10495342;28;20064;-72
2022/08/03 07:16:40;;;;;;;8.70;2.08;;;;;;;34.50;32.12;99769.63;10496155;28;20565;-72
2022/08/03 07:21:41;;;;;;;11.65;2.72;;;;;;;34.49;32.60;99790.09;10495686;28;20131;-73
2022/08/03 07:26:41;;;;;;;5.40;2.47;;;;;;;34.64;31.84;99785.06;10503955;28;20040;-73
2022/08/03 07:31:42;;;;;;;18.98;3.30;;;;;;;34.95;31.68;99785.31;10503594;28;20040;-74
2022/08/03 07:36:43;;;;;;;9.05;2.20;;;;;;;34.25;31.97;99721.94;10503677;28;20045;-72
2022/08/03 07:41:45;;;;;;;6.72;2.47;;;;;;;34.54;32.09;99789.88;10502861;28;20037;-72
2022/08/03 07:46:46;;;;;;;7.20;2.53;;;;;;;34.99;31.96;99777.94;10503100;28;20054;-72
2022/08/03 07:52:46;;;;;;;9.63;2.63;;;;;;;34.49;32.07;99703.78;10502313;28;20036;-73
2022/08/03 07:57:07;;;;;;;5.70;2.38;;;;;;;35.01;32.41;99763.03;10502626;28;20047;-72
2022/08/03 08:02:08;;;;;;;16.30;2.75;;;;;;;34.98;31.84;99736.91;10502329;28;20032;-73
2022/08/03 08:07:09;;;;;;;17.33;3.25;;;;;;;34.57;31.43;99649.69;10502855;28;20044;-73
2022/08/03 08:12:11;;;;;;;11.48;3.70;;;;;;;35.38;31.33;99777.59;10502100;28;20496;-72
2022/08/03 08:17:12;;;;;;;;;;;;;;;35.62;30.81;99771.22;10502821;28;20052;-73
2022/08/03 08:22:13;;;;;;;10.77;3.75;;;;;;;35.21;31.53;99713.22;10501429;28;19920;-72
2022/08/03 08:27:14;;;;;;;9.40;3.60;;;;;;;35.70;30.46;99745.41;10500933;28;20064;-75
2022/08/03 08:32:15;;;;;;;15.33;6.03;;;;;;;35.88;31.26;99762.50;10500270;28;20411;-72
2022/08/03 08:37:16;;;;;;;9.70;3.30;;;;;;;35.60;31.09;99749.50;10500257;28;20051;-72
2022/08/03 08:42:16;;;;;;;9.48;6.95;;;;;;;35.73;31.00;99743.91;10500477;28;20032;-72
2022/08/03 08:47:22;;;;;;;7.90;3.92;;;;;;;35.57;30.61;99680.31;10500619;28;20097;-73
2022/08/03 08:52:26;;;;;;;19.92;5.47;;;;;;;36.07;30.17;99743.31;10501314;28;20482;-72
2022/08/03 08:57:37;;;;;;;13.80;4.85;;;;;;;36.01;29.73;99749.41;10500423;28;20041;-72
2022/08/03 09:02:38;;;;;;;12.68;3.38;;;;;;;35.82;29.92;99750.91;10499894;28;20612;-71
2022/08/03 09:07:40;;;;;;;4.72;2.50;;;;;;;35.56;30.02;99692.53;10499986;28;20206;-73
2022/08/03 09:12:43;;;;;;;22.08;2.88;;;;;;;35.57;29.74;99664.56;10481298;28;20439;-69
2022/08/03 09:17:43;;;;;;;13.18;2.75;;;;;;;35.82;29.48;99689.31;10499631;28;20045;-72
2022/08/03 09:22:56;;;;;;;9.70;2.70;;;;;;;36.05;29.86;99690.34;10498983;28;20037;-72
2022/08/03 09:28:08;;;;;;;7.25;2.50;;;;;;;36.18;28.63;99693.81;10499331;28;20400;-71
2022/08/03 09:33:11;;;;;;;10.45;2.33;;;;;;;36.51;29.27;99748.00;10499202;28;20040;-74
2022/08/03 09:38:26;;;;;;;6.55;2.72;;;;;;;35.47;29.41;99603.47;10498927;28;20043;-72
2022/08/03 09:43:27;;;;;;;8.85;2.60;;;;;;;36.76;28.37;99738.34;10498592;28;20114;-73
2022/08/03 09:48:30;;;;;;;5.73;2.27;;;;;;;36.90;28.03;99734.31;10497624;28;20431;-72
2022/08/03 09:53:42;;;;;;;23.70;3.00;;;;;;;36.91;28.54;99747.00;10497671;28;20040;-73
2022/08/03 09:58:46;;;;;;;9.63;2.58;;;;;;;36.89;28.63;99741.03;10498555;28;20071;-72
2022/08/03 10:03:57;;;;;;;10.77;2.75;;;;;;;36.44;27.30;99670.34;10497717;28;20102;-72
2022/08/03 10:09:12;;;;;;;21.43;3.70;;;;;;;36.08;29.08;99672.25;10497172;28;20040;-73
2022/08/03 10:14:22;;;;;;;8.10;2.35;;;;;;;36.52;28.35;99727.50;10497737;28;20393;-72
2022/08/03 10:19:24;;;;;;;13.30;3.10;;;;;;;36.53;28.82;99726.34;10497322;28;20041;-73
2022/08/03 10:24:27;;;;;;;;;;;;;;;36.76;27.40;99735.59;10520354;28;20040;-72
2022/08/03 10:29:28;;;;;;;33.00;3.97;;;;;;;35.87;29.52;99728.53;10517705;28;19920;-72
2022/08/03 10:34:34;;;;;;;6.88;2.70;;;;;;;35.90;28.65;99721.50;10524769;28;20043;-73
2022/08/03 10:39:35;;;;;;;7.28;3.00;;;;;;;36.05;28.08;99645.31;10509014;28;20043;-72
2022/08/03 10:44:40;;;;;;;10.37;2.70;;;;;;;36.66;27.81;99711.25;10512835;28;20063;-71
2022/08/03 10:49:41;;;;;;;14.05;3.35;;;;;;;36.73;28.48;99705.84;10513271;28;20095;-72
2022/08/03 11:00:03;;;;;;;7.80;2.50;;;;;;;36.89;27.80;99685.69;10519616;28;20075;-72
2022/08/03 11:05:30;;;;;;;5.95;2.80;;;;;;;37.14;27.88;99700.88;10513321;28;20495;-73
2022/08/03 11:10:31;;;;;;;22.98;3.00;;;;;;;37.08;27.56;99680.19;10514749;28;20037;-72
2022/08/03 11:15:33;;;;;;;13.15;3.20;;;;;;;37.36;27.45;99701.31;10525499;28;20039;-74
2022/08/03 11:21:02;;;;;;;;;;;;;;;37.75;27.61;99698.56;10537627;28;20451;-72
2022/08/03 11:26:13;;;;;;;8.10;2.63;;;;;;;37.46;26.90;99684.97;10527469;28;19916;-71
2022/08/03 11:31:26;;;;;;;5.57;2.40;;;;;;;37.57;26.47;99696.25;10536795;28;20036;-72
2022/08/03 11:36:27;;;;;;;11.73;4.70;;;;;;;37.14;26.90;99680.69;10536613;28;20090;-73
2022/08/03 11:41:34;;;;;;;8.13;4.80;;;;;;;37.30;27.43;99694.47;10538064;28;20085;-72
2022/08/03 11:46:36;;;;;;;5.15;2.60;;;;;;;37.54;26.78;99699.75;10536687;28;20036;-73
2022/08/03 11:51:38;;;;;;;18.23;2.95;;;;;;;37.67;27.07;99670.72;10537302;28;20456;-73
2022/08/03 11:56:44;;;;;;;16.38;3.38;;;;;;;37.32;26.67;99690.19;10536826;28;20039;-75
2022/08/03 12:01:45;;;;;;;10.50;2.40;;;;;;;37.32;27.31;99689.38;10537189;28;20051;-74
2022/08/03 12:07:02;;;;;;;9.50;2.80;;;;;;;36.97;26.25;99627.31;10531960;28;20093;-73
2022/08/03 12:12:03;;;;;;;8.35;2.92;;;;;;;37.00;27.61;99695.03;10516835;28;20040;-72
2022/08/03 12:17:05;;;;;;;19.43;3.20;;;;;;;36.69;28.02;99701.41;10508230;28;20064;-73
2022/08/03 12:22:06;;;;;;;;;;;;;;;36.49;27.19;99700.50;10502652;28;20135;-73
2022/08/03 12:27:06;;;;;;;14.13;3.60;;;;;;;35.65;28.63;99654.50;10501687;28;20019;-73
2022/08/03 12:32:07;;;;;;;15.50;2.78;;;;;;;35.75;28.93;99680.81;10501540;28;20391;-72
2022/08/03 12:37:08;;;;;;;12.13;3.13;;;;;;;35.69;28.73;99685.81;10500735;28;20522;-72
2022/08/03 12:42:09;;;;;;;9.13;2.72;;;;;;;35.65;28.34;99685.69;10501173;28;20060;-72
2022/08/03 12:47:10;;;;;;;8.63;3.30;;;;;;;35.62;28.97;99656.00;10500269;28;20048;-72
2022/08/03 12:52:12;;;;;;;9.18;2.60;;;;;;;35.99;28.58;99666.88;10500854;28;20036;-72
2022/08/03 12:57:12;;;;;;;19.93;2.83;;;;;;;35.56;28.18;99602.16;10512395;28;20052;-67
2022/08/03 13:02:22;;;;;;;12.55;2.60;;;;;;;36.05;27.69;99679.28;10500339;28;20049;-72
2022/08/03 13:07:22;;;;;;;11.25;2.72;;;;;;;35.79;28.19;99659.59;10539595;28;20040;-73
2022/08/03 13:12:28;;;;;;;10.80;2.53;;;;;;;35.47;28.04;99666.97;10541000;28;20032;-72
2022/08/03 13:17:29;;;;;;;10.30;2.35;;;;;;;35.31;28.19;99655.91;10541444;28;20101;-75
2022/08/03 13:22:32;;;;;;;7.95;2.90;;;;;;;35.27;28.03;99672.38;10541584;28;20096;-72
2022/08/03 13:27:33;;;;;;;17.75;3.08;;;;;;;35.44;28.01;99671.25;10540723;28;20040;-71
2022/08/03 13:32:34;;;;;;;15.07;3.22;;;;;;;35.74;27.33;99679.19;10541897;28;20377;-72
2022/08/03 13:37:36;;;;;;;7.83;2.80;;;;;;;35.43;28.03;99666.88;10514325;28;20093;-72
2022/08/03 13:42:37;;;;;;;7.97;2.77;;;;;;;35.17;28.18;99668.13;10498879;28;20040;-73
2022/08/03 13:47:37;;;;;;;6.53;2.40;;;;;;;35.39;27.53;99674.25;10528270;28;20301;-73
2022/08/03 13:52:38;;;;;;;13.60;3.05;;;;;;;35.55;27.58;99677.13;10537294;28;20138;-73
2022/08/03 13:57:39;;;;;;;9.95;2.53;;;;;;;35.71;26.86;99669.66;10537406;28;20036;-73
2022/08/03 14:02:40;;;;;;;17.58;3.08;;;;;;;35.70;27.40;99678.31;10534613;28;20542;-74
2022/08/03 14:07:41;;;;;;;6.93;2.78;;;;;;;34.97;26.93;99586.25;10518541;28;20062;-74
2022/08/03 14:12:41;;;;;;;17.70;3.60;;;;;;;34.62;27.35;99586.03;10529660;28;20060;-72
2022/08/03 14:17:42;;;;;;;10.18;2.60;;;;;;;34.98;27.39;99678.97;10538832;28;20074;-72
2022/08/03 14:22:43;;;;;;;8.32;2.97;;;;;;;34.86;27.50;99690.03;10538511;28;20054;-72
2022/08/03 14:27:44;;;;;;;22.33;3.70;;;;;;;34.79;27.81;99704.38;10538320;28;20093;-72
2022/08/03 14:32:46;;;;;;;10.68;3.00;;;;;;;34.73;27.64;99714.88;10537612;28;20054;-73
2022/08/03 14:37:47;;;;;;;12.82;3.17;;;;;;;34.61;27.87;99689.22;10539927;28;20044;-70
2022/08/03 14:42:48;;;;;;;28.10;4.15;;;;;;;34.52;27.50;99703.91;10536732;28;20044;-69
2022/08/03 14:47:50;;;;;;;35.08;4.35;;;;;;;34.07;27.74;99635.88;10537817;28;20054;-70
2022/08/03 14:52:51;;;;;;;18.77;3.90;;;;;;;34.27;28.14;99685.72;10537783;28;20043;-70
2022/08/03 14:57:52;;;;;;;10.65;2.78;;;;;;;34.22;28.23;99683.19;10538432;28;20042;-70
2022/08/03 15:02:52;;;;;;;6.63;2.90;;;;;;;34.30;27.68;99724.44;10538014;28;20434;-70
2022/08/03 15:07:53;;;;;;;11.75;3.17;;;;;;;34.06;27.58;99700.41;10537169;28;20067;-70
2022/08/03 15:12:54;;;;;;;26.58;4.03;;;;;;;33.89;27.73;99686.78;10537049;28;20056;-71
2022/08/03 15:17:55;;;;;;;10.40;2.75;;;;;;;33.89;27.90;99706.06;10537323;28;20411;-70
2022/08/03 15:22:56;;;;;;;24.27;3.22;;;;;;;33.94;28.04;99721.59;10536895;28;20138;-71
2022/08/03 15:27:57;;;;;;;18.67;3.30;;;;;;;33.69;28.09;99720.69;10530143;28;20043;-71
2022/08/03 15:32:57;;;;;;;21.85;3.17;;;;;;;33.69;27.58;99748.25;10522870;28;20127;-70
2022/08/03 15:37:58;;;;;;;11.85;3.13;;;;;;;33.62;27.76;99754.28;10536930;28;20035;-70
2022/08/03 15:43:00;;;;;;;23.75;4.57;;;;;;;33.45;27.70;99749.69;10537126;28;20090;-71
2022/08/03 15:48:01;;;;;;;26.23;3.40;;;;;;;33.39;26.35;99756.56;10526679;28;20043;-71
2022/08/03 15:53:02;;;;;;;12.85;3.58;;;;;;;33.24;25.40;99740.63;10545137;28;20044;-70
2022/08/03 15:58:03;;;;;;;12.57;3.15;;;;;;;33.01;25.07;99738.19;10544301;28;20401;-70
2022/08/03 16:03:04;;;;;;;19.92;3.95;;;;;;;32.86;25.12;99722.22;10522856;28;20037;-69
2022/08/03 16:08:05;;;;;;;18.80;3.70;;;;;;;32.48;24.65;99684.53;10502581;28;20051;-70
2022/08/03 16:13:06;;;;;;;19.75;4.18;;;;;;;32.60;24.76;99736.88;10513697;28;20527;-69
2022/08/03 16:18:08;;;;;;;20.50;4.00;;;;;;;32.45;24.93;99746.50;10544953;28;20040;-69
2022/08/03 16:23:08;;;;;;;15.20;4.10;;;;;;;31.91;24.81;99693.13;10507948;28;20068;-71
2022/08/03 16:28:11;;;;;;;13.10;3.30;;;;;;;32.25;25.16;99780.16;10501032;28;20051;-71
2022/08/03 16:33:14;;;;;;;13.18;3.33;;;;;;;31.73;25.71;99706.03;10501223;28;20047;-73
2022/08/03 16:38:15;;;;;;;16.30;3.78;;;;;;;32.03;25.82;99778.41;10502017;28;20480;-69
2022/08/03 16:43:18;;;;;;;22.90;4.07;;;;;;;31.81;25.97;99754.66;10501471;28;20083;-73
2022/08/03 16:48:19;;;;;;;18.27;3.83;;;;;;;31.73;26.24;99748.03;10501036;28;20036;-70
2022/08/03 16:53:20;;;;;;;18.70;3.50;;;;;;;31.23;26.71;99696.34;10500569;28;20044;-71
2022/08/03 16:58:22;;;;;;;14.50;3.92;;;;;;;31.24;26.94;99703.44;10499721;28;20032;-69
2022/08/03 17:03:22;;;;;;;21.33;4.38;;;;;;;31.07;27.40;99700.66;10501048;28;20047;-69
2022/08/03 17:08:23;;;;;;;17.83;3.97;;;;;;;31.42;27.78;99785.81;10499996;28;20041;-69
2022/08/03 17:13:24;;;;;;;20.85;4.35;;;;;;;31.19;28.92;99783.16;10501013;28;20052;-71
2022/08/03 17:18:28;;;;;;;17.15;4.30;;;;;;;31.40;29.45;99832.78;10506166;28;20055;-70
2022/08/03 17:23:49;;;;;;;14.00;3.55;;;;;;;30.62;30.20;99734.56;10489118;28;20117;-68
2022/08/03 17:28:51;;;;;;;11.57;3.20;;;;;;;30.80;30.62;99800.47;10498665;28;20127;-69
2022/08/03 17:33:53;;;;;;;8.40;3.40;;;;;;;30.57;30.91;99788.69;10499220;28;20040;-68
2022/08/03 17:38:53;;;;;;;8.23;3.20;;;;;;;31.07;31.06;99906.41;10499012;28;20114;-67
2022/08/03 17:43:54;;;;;;;12.45;3.20;;;;;;;30.92;31.75;99908.44;10493405;28;20582;-70
2022/08/03 17:48:55;;;;;;;17.27;3.70;;;;;;;30.96;31.84;99944.25;10464700;28;20065;-71
2022/08/03 17:54:16;;;;;;;14.88;4.00;;;;;;;30.88;33.33;99947.78;10457550;28;20049;-71
2022/08/03 17:59:26;;;;;;;12.05;3.97;;;;;;;30.45;35.50;99970.16;10488393;28;20044;-71
2022/08/03 18:04:30;;;;;;;12.05;4.18;;;;;;;29.93;36.85;99965.00;10498210;28;20508;-72
2022/08/03 18:09:34;;;;;;;17.35;5.68;;;;;;;30.06;36.91;100066.63;10496140;28;20223;-67
2022/08/03 18:14:51;;;;;;;17.63;8.55;;;;;;;29.56;40.19;100070.81;10497169;28;20066;-68
2022/08/03 18:19:54;;;;;;;21.60;11.90;;;;;;;29.19;41.02;100057.22;10497130;28;20047;-70
2022/08/03 18:24:55;;;;;;;33.90;13.43;;;;;;;28.08;44.70;99946.53;10496918;28;20127;-70
2022/08/03 18:29:58;;;;;;;23.90;12.20;;;;;;;27.82;49.98;100063.41;10496351;28;20521;-73
2022/08/03 18:35:01;;;;;;;21.17;10.90;;;;;;;27.10;52.80;100077.66;10496236;28;20051;-72
2022/08/03 18:40:03;;;;;;;20.10;8.30;;;;;;;26.66;54.99;100078.50;10477708;28;20041;-71
2022/08/03 18:45:05;;;;;;;20.63;11.90;;;;;;;26.15;56.27;100046.84;10495226;28;20041;-69
2022/08/03 18:50:14;;;;;;;22.42;9.13;;;;;;;25.95;58.98;100042.28;10496183;28;20052;-73
2022/08/03 18:55:24;;;;;;;12.55;7.43;;;;;;;25.78;60.65;100028.16;10489656;28;20071;-72
2022/08/03 19:00:31;;;;;;;17.00;7.32;;;;;;;25.83;60.15;100055.41;10468612;28;20564;-72
2022/08/03 19:05:50;;;;;;;11.20;7.05;;;;;;;25.41;65.34;99972.22;10454654;28;20040;-73
2022/08/03 19:10:58;;;;;;;12.25;6.45;;;;;;;25.63;66.70;100029.00;10484079;28;20047;-73
2022/08/03 19:16:02;;;;;;;19.27;6.60;;;;;;;25.34;68.47;100004.34;10438934;28;20111;-72
2022/08/03 19:21:04;;;;;;;12.13;6.45;;;;;;;24.86;65.71;99941.28;10466830;28;20479;-72
2022/08/03 19:26:05;;;;;;;10.85;5.72;;;;;;;25.06;66.27;99952.13;10462697;28;20044;-73
2022/08/03 19:31:08;;;;;;;16.27;6.90;;;;;;;25.21;67.63;99992.09;10467511;28;20037;-73
2022/08/03 19:36:12;;;;;;;33.20;7.20;;;;;;;25.13;68.58;99980.94;10466020;28;20059;-72
2022/08/03 19:41:16;;;;;;;12.20;6.05;;;;;;;24.81;68.81;99944.81;10467218;28;20044;-72
2022/08/03 19:46:18;;;;;;;18.90;6.28;;;;;;;24.95;67.48;99976.84;10468226;28;20041;-72
2022/08/03 19:51:22;;;;;;;18.63;8.38;;;;;;;24.47;66.34;99876.66;10466769;28;20131;-72
2022/08/03 19:56:25;;;;;;;14.73;7.38;;;;;;;24.82;68.24;99923.88;10467350;28;20065;-72
2022/08/03 20:01:26;;;;;;;28.95;6.55;;;;;;;25.16;66.57;99959.50;10466817;28;20040;-72
2022/08/03 20:06:27;;;;;;;17.35;6.25;;;;;;;25.19;67.28;99961.69;10466746;28;20040;-72
2022/08/03 20:11:29;;;;;;;11.88;6.50;;;;;;;25.04;68.96;99962.47;10467632;28;20044;-72
2022/08/03 20:16:30;;;;;;;14.60;6.50;;;;;;;24.99;70.31;99965.19;10467510;28;20496;-72
2022/08/03 20:21:33;;;;;;;11.73;7.20;;;;;;;24.89;73.52;99956.22;10466288;28;20048;-72
2022/08/03 20:26:35;;;;;;;14.23;6.22;;;;;;;24.55;73.02;99919.53;10466285;28;20045;-72
2022/08/03 20:31:36;;;;;;;25.50;7.43;;;;;;;24.42;74.19;99903.81;10461691;28;20060;-72
2022/08/03 20:36:37;;;;;;;21.63;6.18;;;;;;;24.26;73.18;99877.69;10455308;28;20048;-72
2022/08/03 20:41:39;;;;;;;17.98;6.05;;;;;;;24.62;71.86;99949.16;10448269;28;20037;-72
2022/08/03 20:46:40;;;;;;;9.80;5.23;;;;;;;24.37;70.31;99906.47;10459486;28;20069;-72
2022/08/03 20:51:41;;;;;;;13.73;5.80;;;;;;;24.40;70.89;99921.41;10456121;28;20042;-72
2022/08/03 20:56:43;;;;;;;12.70;5.93;;;;;;;24.37;71.26;99915.44;10419719;28;20056;-72
2022/08/03 21:01:44;;;;;;;13.15;5.45;;;;;;;23.98;72.41;99860.81;10417984;28;20049;-72
2022/08/03 21:06:52;;;;;;;13.95;6.32;;;;;;;24.14;75.68;99905.91;10417522;28;20099;-72
2022/08/03 21:11:54;;;;;;;11.45;7.25;;;;;;;24.32;75.22;99937.16;10417958;28;20068;-72
2022/08/03 21:16:57;;;;;;;10.32;5.63;;;;;;;23.67;75.47;99854.47;10416595;28;20053;-73
2022/08/03 21:21:58;;;;;;;15.95;7.60;;;;;;;23.91;76.09;99936.22;10417624;28;20043;-72
2022/08/03 21:27:00;;;;;;;15.35;8.15;;;;;;;23.86;76.96;99947.88;10424727;28;20404;-72
2022/08/03 21:32:01;;;;;;;11.40;6.97;;;;;;;23.27;77.38;99866.78;10457292;28;20051;-72
2022/08/03 21:37:02;;;;;;;17.95;7.80;;;;;;;23.62;78.22;99947.47;10457061;28;20040;-72
2022/08/03 21:42:03;;;;;;;12.73;7.50;;;;;;;23.60;79.64;99935.25;10438636;28;20485;-72
2022/08/03 21:47:07;;;;;;;13.77;7.35;;;;;;;23.67;81.30;99952.91;10457034;28;20049;-73
2022/08/03 21:52:08;;;;;;;15.57;7.10;;;;;;;23.58;80.46;99948.25;10456595;28;20040;-72
2022/08/03 21:57:22;;;;;;;11.35;7.70;;;;;;;23.58;82.33;99951.78;10456958;28;20041;-73
2022/08/03 22:02:27;;;;;;;19.08;8.38;;;;;;;22.80;82.31;99867.56;10456616;28;20088;-72
2022/08/03 22:07:28;;;;;;;15.40;7.93;;;;;;;23.16;81.66;99938.28;10456046;28;20051;-72
2022/08/03 22:12:30;;;;;;;12.30;7.18;;;;;;;23.21;83.27;99955.38;10458912;28;20437;-72
2022/08/03 22:17:35;;;;;;;8.48;6.82;;;;;;;23.05;83.81;99940.06;10538700;28;20036;-73
2022/08/03 22:22:37;;;;;;;15.57;6.85;;;;;;;22.92;83.06;99965.69;10538697;28;20122;-72
2022/08/03 22:27:40;;;;;;;10.88;6.28;;;;;;;22.79;83.73;99953.41;10539757;28;20050;-72
2022/08/03 22:32:43;;;;;;;10.10;7.03;;;;;;;22.70;83.92;99957.63;10539100;28;20044;-73
2022/08/03 22:37:47;;;;;;;11.10;6.65;;;;;;;22.86;84.03;99982.16;10521149;28;20067;-73
2022/08/03 22:42:48;;;;;;;21.33;7.53;;;;;;;22.82;84.49;99973.72;10523214;28;20102;-72
2022/08/03 22:47:50;;;;;;;13.57;6.53;;;;;;;22.78;83.88;99968.00;10486918;28;20416;-73
2022/08/03 22:52:53;;;;;;;11.18;6.25;;;;;;;22.59;83.76;99969.47;10496106;28;20083;-72
2022/08/03 22:57:53;;;;;;;15.95;7.22;;;;;;;22.33;84.15;99965.69;10495955;28;20043;-73
2022/08/03 23:02:56;;;;;;;16.63;7.45;;;;;;;22.11;85.17;99968.41;10496115;28;20052;-73
2022/08/03 23:08:01;;;;;;;16.38;7.35;;;;;;;22.06;85.74;99989.97;10495399;28;20051;-72
2022/08/03 23:13:02;;;;;;;10.32;6.63;;;;;;;22.12;85.45;99983.56;10489658;28;20413;-73
2022/08/03 23:18:05;;;;;;;11.82;7.05;;;;;;;22.17;85.14;100002.59;10454800;28;20414;-72
2022/08/03 23:23:07;;;;;;;13.60;7.05;;;;;;;21.77;85.52;99930.66;10454611;28;20037;-73
2022/08/03 23:28:08;;;;;;;13.70;6.88;;;;;;;21.72;85.47;99936.03;10453371;28;20075;-73
2022/08/03 23:33:15;;;;;;;13.23;6.88;;;;;;;21.94;87.44;99968.47;10454662;28;20459;-72